RKSO/OSN METAR and TAF weather

Enter ICAO airport designator
Station Type Date Time Source
RKSO METAR 2021/03/02 02:58 UTC NOAA

RKSO 020258Z 00000KT 7SM SCT026 OVC033 04/M01 A3027 RMK AO2A SLP254 T00411007 52014 $


Station Type Date Time Source
RKSO Decoded METAR 2021/03/02 02:58 UTC NOAA

Osan Ab, Korea, South (RKSO) 37-06N 127-02E 12M
Mar 01, 2021 - 09:58 PM EST / 2021.03.02 0258 UTC
Wind: Calm:0
Visibility: 7 mile(s):0
Sky conditions: overcast
Temperature: 39.4 F (4.1 C)
Dew Point: 30.7 F (-0.7 C)
Relative Humidity: 70%
Pressure (altimeter): 30.27 in. Hg (1025 hPa)
Pressure tendency: 0.04 inches (1.4 hPa) higher than three hours ago
ob: RKSO 020258Z 00000KT 7SM SCT026 OVC033 04/M01 A3027 RMK AO2A SLP254 T00411007 52014
cycle: 3

Station Type Date Time Source
RKSO TAF 2021/03/01 21:03 UTC NOAA

TAF RKSO 012100Z 0121/0303 34006KT 9999 OVC041 610503 QNH3010INS
BECMG 0201/0202 34010G15KT 9999 SCT050 QNH3021INS
BECMG 0205/0206 31012KT 9999 FEW250 QNH3027INS
BECMG 0210/0211 VRB06KT 9999 SKC QNH3028INS TX05/0205Z TN00/0121Z

Example: see airport list